sensor_id;sensor_type;location;lat;lon;timestamp;pressure;altitude;pressure_sealevel;temperature;humidity
54122;BME280;40029;58.708;50.190;2023-06-14T00:01:09;100541.31;;;15.63;39.28
54122;BME280;40029;58.708;50.190;2023-06-14T00:03:40;100502.16;;;15.39;39.42
54122;BME280;40029;58.708;50.190;2023-06-14T00:06:12;100499.53;;;15.39;39.55
54122;BME280;40029;58.708;50.190;2023-06-14T00:08:43;100552.22;;;15.74;39.21
54122;BME280;40029;58.708;50.190;2023-06-14T00:11:14;100507.06;;;15.47;39.54
54122;BME280;40029;58.708;50.190;2023-06-14T00:13:46;100548.59;;;15.77;39.23
54122;BME280;40029;58.708;50.190;2023-06-14T00:16:17;100507.56;;;15.55;39.72
54122;BME280;40029;58.708;50.190;2023-06-14T00:18:50;100535.31;;;15.80;39.23
54122;BME280;40029;58.708;50.190;2023-06-14T00:21:22;100494.19;;;15.60;39.36
54122;BME280;40029;58.708;50.190;2023-06-14T00:23:53;100491.41;;;15.63;39.46
54122;BME280;40029;58.708;50.190;2023-06-14T00:26:25;100545.81;;;15.98;39.23
54122;BME280;40029;58.708;50.190;2023-06-14T00:28:58;100523.66;;;15.85;38.88
54122;BME280;40029;58.708;50.190;2023-06-14T00:31:47;100493.72;;;15.70;38.78
54122;BME280;40029;58.708;50.190;2023-06-14T00:34:19;100536.91;;;16.01;38.88
54122;BME280;40029;58.708;50.190;2023-06-14T00:36:50;100501.16;;;15.80;38.59
54122;BME280;40029;58.708;50.190;2023-06-14T00:39:21;100506.13;;;15.86;38.32
54122;BME280;40029;58.708;50.190;2023-06-14T00:41:52;100534.09;;;16.06;38.26
54122;BME280;40029;58.708;50.190;2023-06-14T00:44:24;100498.25;;;15.86;38.27
54122;BME280;40029;58.708;50.190;2023-06-14T00:46:56;100496.09;;;15.94;38.19
54122;BME280;40029;58.708;50.190;2023-06-14T00:49:29;100532.69;;;16.16;37.94
54122;BME280;40029;58.708;50.190;2023-06-14T00:52:00;100496.72;;;15.99;37.89
54122;BME280;40029;58.708;50.190;2023-06-14T00:54:33;100548.63;;;16.30;38.30
54122;BME280;40029;58.708;50.190;2023-06-14T00:57:04;100542.25;;;16.36;38.01
54122;BME280;40029;58.708;50.190;2023-06-14T00:59:42;100546.19;;;16.44;38.12
54122;BME280;40029;58.708;50.190;2023-06-14T01:02:14;100498.53;;;16.16;38.04
54122;BME280;40029;58.708;50.190;2023-06-14T01:04:48;100483.22;;;16.24;37.76
54122;BME280;40029;58.708;50.190;2023-06-14T01:07:46;100543.81;;;16.74;38.38
54122;BME280;40029;58.708;50.190;2023-06-14T01:13:07;100534.66;;;16.82;38.04
54122;BME280;40029;58.708;50.190;2023-06-14T01:15:41;100544.94;;;16.86;38.03
54122;BME280;40029;58.708;50.190;2023-06-14T01:18:13;100486.53;;;16.62;38.11
54122;BME280;40029;58.708;50.190;2023-06-14T01:20:48;100541.28;;;17.06;37.82
54122;BME280;40029;58.708;50.190;2023-06-14T01:23:21;100512.66;;;17.00;37.47
54122;BME280;40029;58.708;50.190;2023-06-14T01:25:53;100484.72;;;16.97;37.59
54122;BME280;40029;58.708;50.190;2023-06-14T01:28:24;100529.47;;;17.31;37.24
54122;BME280;40029;58.708;50.190;2023-06-14T01:31:00;100482.56;;;17.21;36.75
54122;BME280;40029;58.708;50.190;2023-06-14T01:33:35;100526.66;;;17.49;37.23
54122;BME280;40029;58.708;50.190;2023-06-14T01:36:08;100532.66;;;17.69;36.58
54122;BME280;40029;58.708;50.190;2023-06-14T01:38:40;100480.88;;;17.52;36.40
54122;BME280;40029;58.708;50.190;2023-06-14T01:41:13;100519.50;;;17.85;35.92
54122;BME280;40029;58.708;50.190;2023-06-14T01:43:47;100534.09;;;18.06;35.43
54122;BME280;40029;58.708;50.190;2023-06-14T01:46:20;100503.38;;;18.05;34.80
54122;BME280;40029;58.708;50.190;2023-06-14T01:48:51;100470.84;;;17.90;35.09
54122;BME280;40029;58.708;50.190;2023-06-14T01:51:24;100526.47;;;18.32;34.91
54122;BME280;40029;58.708;50.190;2023-06-14T01:53:55;100500.25;;;18.14;35.30
54122;BME280;40029;58.708;50.190;2023-06-14T01:56:26;100524.81;;;18.45;34.79
54122;BME280;40029;58.708;50.190;2023-06-14T01:58:57;100470.75;;;18.22;34.87
54122;BME280;40029;58.708;50.190;2023-06-14T02:01:29;100520.78;;;18.69;34.47
54122;BME280;40029;58.708;50.190;2023-06-14T02:04:00;100523.88;;;18.76;33.64
54122;BME280;40029;58.708;50.190;2023-06-14T02:06:31;100519.75;;;18.86;33.07
54122;BME280;40029;58.708;50.190;2023-06-14T02:09:02;100476.28;;;18.78;31.95
54122;BME280;40029;58.708;50.190;2023-06-14T02:11:34;100520.25;;;19.21;30.75
54122;BME280;40029;58.708;50.190;2023-06-14T02:14:05;100476.66;;;19.14;29.90
54122;BME280;40029;58.708;50.190;2023-06-14T02:16:38;100501.25;;;19.43;29.26
54122;BME280;40029;58.708;50.190;2023-06-14T02:19:09;100460.41;;;19.35;28.43
54122;BME280;40029;58.708;50.190;2023-06-14T02:21:40;100471.88;;;19.62;27.81
54122;BME280;40029;58.708;50.190;2023-06-14T02:24:13;100496.00;;;19.85;27.38
54122;BME280;40029;58.708;50.190;2023-06-14T02:26:44;100508.97;;;20.02;27.16
54122;BME280;40029;58.708;50.190;2023-06-14T02:29:19;100445.88;;;19.69;26.63
54122;BME280;40029;58.708;50.190;2023-06-14T02:31:51;100478.38;;;19.98;26.58
54122;BME280;40029;58.708;50.190;2023-06-14T02:34:25;100466.63;;;20.02;26.21
54122;BME280;40029;58.708;50.190;2023-06-14T02:37:16;100468.25;;;20.17;26.01
54122;BME280;40029;58.708;50.190;2023-06-14T02:39:48;100462.38;;;20.27;25.62
54122;BME280;40029;58.708;50.190;2023-06-14T02:42:19;100488.53;;;20.44;25.31
54122;BME280;40029;58.708;50.190;2023-06-14T02:44:52;100462.72;;;20.47;24.72
54122;BME280;40029;58.708;50.190;2023-06-14T02:47:24;100498.03;;;20.74;24.69
54122;BME280;40029;58.708;50.190;2023-06-14T02:49:55;100421.06;;;20.37;24.62
54122;BME280;40029;58.708;50.190;2023-06-14T02:52:27;100485.81;;;20.84;24.42
54122;BME280;40029;58.708;50.190;2023-06-14T02:54:58;100496.63;;;20.93;24.26
54122;BME280;40029;58.708;50.190;2023-06-14T02:57:30;100441.97;;;20.67;24.17
54122;BME280;40029;58.708;50.190;2023-06-14T03:00:03;100464.75;;;20.95;23.93
54122;BME280;40029;58.708;50.190;2023-06-14T03:02:37;100486.31;;;21.14;23.36
54122;BME280;40029;58.708;50.190;2023-06-14T03:05:08;100443.22;;;21.00;23.27
54122;BME280;40029;58.708;50.190;2023-06-14T03:07:59;100450.31;;;21.12;23.41
54122;BME280;40029;58.708;50.190;2023-06-14T03:10:31;100485.25;;;21.42;23.37
54122;BME280;40029;58.708;50.190;2023-06-14T03:13:04;100483.75;;;21.51;23.30
54122;BME280;40029;58.708;50.190;2023-06-14T03:15:36;100483.06;;;21.60;22.67
54122;BME280;40029;58.708;50.190;2023-06-14T03:18:08;100450.66;;;21.44;22.80
54122;BME280;40029;58.708;50.190;2023-06-14T03:20:58;100486.72;;;21.70;22.18
54122;BME280;40029;58.708;50.190;2023-06-14T03:23:31;100443.22;;;21.49;22.23
54122;BME280;40029;58.708;50.190;2023-06-14T03:26:02;100465.13;;;21.64;21.98
54122;BME280;40029;58.708;50.190;2023-06-14T03:28:34;100433.75;;;21.58;22.01
54122;BME280;40029;58.708;50.190;2023-06-14T03:31:05;100457.75;;;21.80;21.75
54122;BME280;40029;58.708;50.190;2023-06-14T03:36:27;100436.69;;;21.90;21.64
54122;BME280;40029;58.708;50.190;2023-06-14T03:39:00;100469.03;;;22.19;21.82
54122;BME280;40029;58.708;50.190;2023-06-14T03:41:31;100438.28;;;22.04;21.75
54122;BME280;40029;58.708;50.190;2023-06-14T03:44:02;100472.09;;;22.37;21.74
54122;BME280;40029;58.708;50.190;2023-06-14T03:46:34;100425.47;;;22.21;21.67
54122;BME280;40029;58.708;50.190;2023-06-14T03:49:06;100425.47;;;22.21;21.47
54122;BME280;40029;58.708;50.190;2023-06-14T03:51:38;100420.44;;;22.30;21.31
54122;BME280;40029;58.708;50.190;2023-06-14T03:54:10;100424.44;;;22.35;21.38
54122;BME280;40029;58.708;50.190;2023-06-14T03:56:42;100449.44;;;22.55;21.33
54122;BME280;40029;58.708;50.190;2023-06-14T03:59:15;100408.63;;;22.45;21.08
54122;BME280;40029;58.708;50.190;2023-06-14T04:01:46;100407.66;;;22.46;21.18
54122;BME280;40029;58.708;50.190;2023-06-14T04:04:19;100438.47;;;22.71;21.15
54122;BME280;40029;58.708;50.190;2023-06-14T04:06:53;100426.41;;;22.67;21.12
54122;BME280;40029;58.708;50.190;2023-06-14T04:09:42;100368.19;;;22.41;21.13
54122;BME280;40029;58.708;50.190;2023-06-14T04:12:14;100434.31;;;22.91;21.12
54122;BME280;40029;58.708;50.190;2023-06-14T04:14:45;100432.97;;;22.97;20.89
54122;BME280;40029;58.708;50.190;2023-06-14T04:17:17;100436.47;;;23.08;20.99
54122;BME280;40029;58.708;50.190;2023-06-14T04:19:49;100438.00;;;23.22;20.79
54122;BME280;40029;58.708;50.190;2023-06-14T04:22:21;100409.88;;;23.08;20.62
54122;BME280;40029;58.708;50.190;2023-06-14T04:24:52;100410.13;;;23.05;20.28
54122;BME280;40029;58.708;50.190;2023-06-14T04:27:26;100392.03;;;22.99;20.36
54122;BME280;40029;58.708;50.190;2023-06-14T04:29:58;100422.19;;;23.20;20.18
54122;BME280;40029;58.708;50.190;2023-06-14T04:32:38;100426.63;;;23.31;20.17
54122;BME280;40029;58.708;50.190;2023-06-14T04:35:16;100397.81;;;23.15;20.30
54122;BME280;40029;58.708;50.190;2023-06-14T04:37:49;100442.81;;;23.51;19.91
54122;BME280;40029;58.708;50.190;2023-06-14T04:40:22;100427.31;;;23.44;20.04
54122;BME280;40029;58.708;50.190;2023-06-14T04:42:53;100408.47;;;23.48;20.06
54122;BME280;40029;58.708;50.190;2023-06-14T04:45:25;100436.84;;;23.69;19.24
54122;BME280;40029;58.708;50.190;2023-06-14T04:48:03;100442.97;;;23.81;19.29
54122;BME280;40029;58.708;50.190;2023-06-14T04:50:35;100394.31;;;23.58;19.28
54122;BME280;40029;58.708;50.190;2023-06-14T04:53:07;100435.78;;;23.93;19.12
54122;BME280;40029;58.708;50.190;2023-06-14T04:55:39;100353.22;;;23.51;18.96
54122;BME280;40029;58.708;50.190;2023-06-14T04:58:12;100388.31;;;23.77;18.54
54122;BME280;40029;58.708;50.190;2023-06-14T05:00:44;100390.13;;;23.77;18.53
54122;BME280;40029;58.708;50.190;2023-06-14T05:03:15;100387.69;;;23.85;18.59
54122;BME280;40029;58.708;50.190;2023-06-14T05:05:49;100425.75;;;24.17;18.23
54122;BME280;40029;58.708;50.190;2023-06-14T05:08:22;100406.63;;;24.12;18.05
54122;BME280;40029;58.708;50.190;2023-06-14T05:11:12;100409.06;;;24.15;18.29
54122;BME280;40029;58.708;50.190;2023-06-14T05:13:44;100415.56;;;24.23;18.00
54122;BME280;40029;58.708;50.190;2023-06-14T05:16:17;100374.50;;;24.04;17.96
54122;BME280;40029;58.708;50.190;2023-06-14T05:18:50;100407.75;;;24.31;17.62
54122;BME280;40029;58.708;50.190;2023-06-14T05:21:21;100381.91;;;24.22;17.53
54122;BME280;40029;58.708;50.190;2023-06-14T05:23:52;100339.63;;;24.07;17.55
54122;BME280;40029;58.708;50.190;2023-06-14T05:26:25;100385.88;;;24.27;17.37
54122;BME280;40029;58.708;50.190;2023-06-14T05:28:59;100365.38;;;24.39;17.30
54122;BME280;40029;58.708;50.190;2023-06-14T05:31:32;100365.94;;;24.42;16.83
54122;BME280;40029;58.708;50.190;2023-06-14T05:34:04;100399.63;;;24.53;16.18
54122;BME280;40029;58.708;50.190;2023-06-14T05:36:35;100407.81;;;24.61;15.59
54122;BME280;40029;58.708;50.190;2023-06-14T05:39:07;100389.31;;;24.60;15.74
54122;BME280;40029;58.708;50.190;2023-06-14T05:41:39;100389.03;;;24.63;16.03
54122;BME280;40029;58.708;50.190;2023-06-14T05:44:10;100402.03;;;24.87;16.04
54122;BME280;40029;58.708;50.190;2023-06-14T05:46:41;100394.72;;;24.89;15.72
54122;BME280;40029;58.708;50.190;2023-06-14T05:49:12;100367.69;;;24.63;15.71
54122;BME280;40029;58.708;50.190;2023-06-14T05:51:43;100406.13;;;25.01;15.78
54122;BME280;40029;58.708;50.190;2023-06-14T05:54:14;100394.94;;;25.07;15.07
54122;BME280;40029;58.708;50.190;2023-06-14T05:56:46;100360.78;;;24.81;14.72
54122;BME280;40029;58.708;50.190;2023-06-14T05:59:17;100400.19;;;25.18;14.75
54122;BME280;40029;58.708;50.190;2023-06-14T06:01:48;100398.34;;;25.18;14.49
54122;BME280;40029;58.708;50.190;2023-06-14T06:04:19;100358.72;;;24.94;14.32
54122;BME280;40029;58.708;50.190;2023-06-14T06:06:51;100358.81;;;24.93;13.69
54122;BME280;40029;58.708;50.190;2023-06-14T06:09:40;100391.34;;;25.17;14.03
54122;BME280;40029;58.708;50.190;2023-06-14T06:12:11;100392.50;;;25.25;13.64
54122;BME280;40029;58.708;50.190;2023-06-14T06:14:42;100387.84;;;25.27;13.14
54122;BME280;40029;58.708;50.190;2023-06-14T06:17:13;100360.03;;;25.10;13.73
54122;BME280;40029;58.708;50.190;2023-06-14T06:19:45;100374.81;;;25.43;13.46
54122;BME280;40029;58.708;50.190;2023-06-14T06:22:16;100378.06;;;25.37;14.08
54122;BME280;40029;58.708;50.190;2023-06-14T06:24:47;100330.69;;;25.10;13.92
54122;BME280;40029;58.708;50.190;2023-06-14T06:27:19;100344.75;;;25.31;13.54
54122;BME280;40029;58.708;50.190;2023-06-14T06:29:51;100316.53;;;25.09;13.24
54122;BME280;40029;58.708;50.190;2023-06-14T06:32:22;100327.72;;;25.03;13.47
54122;BME280;40029;58.708;50.190;2023-06-14T06:34:53;100375.53;;;25.45;13.76
54122;BME280;40029;58.708;50.190;2023-06-14T06:37:25;100334.81;;;25.24;12.94
54122;BME280;40029;58.708;50.190;2023-06-14T06:39:56;100336.06;;;25.29;12.72
54122;BME280;40029;58.708;50.190;2023-06-14T06:42:27;100328.31;;;25.36;13.15
54122;BME280;40029;58.708;50.190;2023-06-14T06:44:58;100369.78;;;25.59;12.69
54122;BME280;40029;58.708;50.190;2023-06-14T06:47:30;100356.72;;;25.56;12.74
54122;BME280;40029;58.708;50.190;2023-06-14T06:50:01;100323.28;;;25.42;12.81
54122;BME280;40029;58.708;50.190;2023-06-14T06:52:37;100324.13;;;25.33;12.58
54122;BME280;40029;58.708;50.190;2023-06-14T06:55:09;100359.00;;;25.80;11.93
54122;BME280;40029;58.708;50.190;2023-06-14T06:57:42;100360.81;;;25.70;12.25
54122;BME280;40029;58.708;50.190;2023-06-14T07:00:13;100330.16;;;25.64;11.94
54122;BME280;40029;58.708;50.190;2023-06-14T07:02:44;100355.44;;;25.99;12.29
54122;BME280;40029;58.708;50.190;2023-06-14T07:05:16;100297.44;;;25.82;12.50
54122;BME280;40029;58.708;50.190;2023-06-14T07:07:47;100311.06;;;25.88;12.53
54122;BME280;40029;58.708;50.190;2023-06-14T07:10:18;100340.56;;;25.97;12.31
54122;BME280;40029;58.708;50.190;2023-06-14T07:12:50;100314.53;;;25.99;13.02
54122;BME280;40029;58.708;50.190;2023-06-14T07:15:21;100352.16;;;26.25;13.21
54122;BME280;40029;58.708;50.190;2023-06-14T07:17:52;100310.56;;;26.22;12.81
54122;BME280;40029;58.708;50.190;2023-06-14T07:20:23;100304.69;;;25.99;11.90
54122;BME280;40029;58.708;50.190;2023-06-14T07:22:55;100316.13;;;26.29;11.51
54122;BME280;40029;58.708;50.190;2023-06-14T07:25:26;100343.13;;;26.45;12.08
54122;BME280;40029;58.708;50.190;2023-06-14T07:27:58;100330.59;;;26.46;11.92
54122;BME280;40029;58.708;50.190;2023-06-14T07:30:29;100301.22;;;26.36;11.71
54122;BME280;40029;58.708;50.190;2023-06-14T07:33:00;100330.63;;;26.73;11.54
54122;BME280;40029;58.708;50.190;2023-06-14T07:35:32;100300.63;;;26.42;11.47
54122;BME280;40029;58.708;50.190;2023-06-14T07:38:03;100302.66;;;26.30;11.32
54122;BME280;40029;58.708;50.190;2023-06-14T07:40:34;100308.88;;;26.11;11.22
54122;BME280;40029;58.708;50.190;2023-06-14T07:43:06;100297.75;;;26.16;11.42
54122;BME280;40029;58.708;50.190;2023-06-14T07:45:37;100309.09;;;26.47;11.89
54122;BME280;40029;58.708;50.190;2023-06-14T07:48:09;100279.81;;;26.46;11.38
54122;BME280;40029;58.708;50.190;2023-06-14T07:50:40;100332.09;;;26.85;11.96
54122;BME280;40029;58.708;50.190;2023-06-14T07:53:30;100287.00;;;26.73;11.21
54122;BME280;40029;58.708;50.190;2023-06-14T07:56:01;100284.78;;;26.68;11.25
54122;BME280;40029;58.708;50.190;2023-06-14T07:58:33;100287.09;;;26.81;11.27
54122;BME280;40029;58.708;50.190;2023-06-14T08:01:04;100286.41;;;26.79;11.66
54122;BME280;40029;58.708;50.190;2023-06-14T08:03:38;100318.09;;;26.74;10.58
54122;BME280;40029;58.708;50.190;2023-06-14T08:06:10;100327.81;;;26.92;11.12
54122;BME280;40029;58.708;50.190;2023-06-14T08:08:41;100323.41;;;27.01;11.34
54122;BME280;40029;58.708;50.190;2023-06-14T08:11:12;100301.91;;;26.93;11.24
54122;BME280;40029;58.708;50.190;2023-06-14T08:13:43;100267.66;;;26.61;10.74
54122;BME280;40029;58.708;50.190;2023-06-14T08:16:14;100267.72;;;26.51;10.89
54122;BME280;40029;58.708;50.190;2023-06-14T08:18:45;100273.28;;;26.58;11.18
54122;BME280;40029;58.708;50.190;2023-06-14T08:21:16;100320.50;;;26.95;10.86
54122;BME280;40029;58.708;50.190;2023-06-14T08:23:48;100286.47;;;26.69;11.04
54122;BME280;40029;58.708;50.190;2023-06-14T08:26:20;100272.56;;;26.83;11.01
54122;BME280;40029;58.708;50.190;2023-06-14T08:28:51;100256.72;;;27.00;10.93
54122;BME280;40029;58.708;50.190;2023-06-14T08:31:23;100261.44;;;27.06;10.62
54122;BME280;40029;58.708;50.190;2023-06-14T08:33:54;100277.19;;;27.09;10.03
54122;BME280;40029;58.708;50.190;2023-06-14T08:36:26;100257.53;;;27.00;10.21
54122;BME280;40029;58.708;50.190;2023-06-14T08:38:57;100267.09;;;27.03;10.56
54122;BME280;40029;58.708;50.190;2023-06-14T08:41:28;100261.50;;;26.96;10.70
54122;BME280;40029;58.708;50.190;2023-06-14T08:44:00;100285.94;;;27.11;10.12
54122;BME280;40029;58.708;50.190;2023-06-14T08:46:32;100293.97;;;27.29;9.39
54122;BME280;40029;58.708;50.190;2023-06-14T08:49:05;100251.31;;;27.09;9.39
54122;BME280;40029;58.708;50.190;2023-06-14T08:51:38;100299.94;;;27.40;9.80
54122;BME280;40029;58.708;50.190;2023-06-14T08:54:11;100280.78;;;27.35;9.06
54122;BME280;40029;58.708;50.190;2023-06-14T08:56:43;100251.38;;;27.35;9.72
54122;BME280;40029;58.708;50.190;2023-06-14T08:59:15;100249.47;;;27.28;10.21
54122;BME280;40029;58.708;50.190;2023-06-14T09:01:46;100286.88;;;27.63;10.24
54122;BME280;40029;58.708;50.190;2023-06-14T09:04:18;100295.84;;;27.54;9.75
54122;BME280;40029;58.708;50.190;2023-06-14T09:06:50;100283.34;;;27.37;9.54
54122;BME280;40029;58.708;50.190;2023-06-14T09:09:23;100242.75;;;27.24;9.66
54122;BME280;40029;58.708;50.190;2023-06-14T09:11:55;100236.50;;;27.15;9.78
54122;BME280;40029;58.708;50.190;2023-06-14T09:14:26;100246.25;;;27.42;9.42
54122;BME280;40029;58.708;50.190;2023-06-14T09:16:57;100211.63;;;27.05;9.30
54122;BME280;40029;58.708;50.190;2023-06-14T09:19:29;100281.84;;;27.60;8.98
54122;BME280;40029;58.708;50.190;2023-06-14T09:22:00;100264.34;;;27.48;8.45
54122;BME280;40029;58.708;50.190;2023-06-14T09:24:31;100234.81;;;27.32;9.42
54122;BME280;40029;58.708;50.190;2023-06-14T09:27:03;100283.03;;;27.40;9.17
54122;BME280;40029;58.708;50.190;2023-06-14T09:29:34;100240.47;;;27.11;9.46
54122;BME280;40029;58.708;50.190;2023-06-14T09:32:06;100237.56;;;27.48;8.84
54122;BME280;40029;58.708;50.190;2023-06-14T09:34:37;100232.75;;;27.52;7.83
54122;BME280;40029;58.708;50.190;2023-06-14T09:37:08;100234.66;;;27.59;8.14
54122;BME280;40029;58.708;50.190;2023-06-14T09:39:50;100244.88;;;27.82;8.09
54122;BME280;40029;58.708;50.190;2023-06-14T09:42:40;100259.25;;;27.81;8.73
54122;BME280;40029;58.708;50.190;2023-06-14T09:45:12;100213.56;;;27.74;8.87
54122;BME280;40029;58.708;50.190;2023-06-14T09:47:45;100207.25;;;27.83;9.01
54122;BME280;40029;58.708;50.190;2023-06-14T09:50:17;100218.44;;;27.79;9.52
54122;BME280;40029;58.708;50.190;2023-06-14T09:52:52;100194.88;;;27.90;8.41
54122;BME280;40029;58.708;50.190;2023-06-14T09:55:26;100216.91;;;27.76;9.05
54122;BME280;40029;58.708;50.190;2023-06-14T09:58:04;100200.09;;;27.92;9.56
54122;BME280;40029;58.708;50.190;2023-06-14T10:00:39;100209.91;;;28.18;8.78
54122;BME280;40029;58.708;50.190;2023-06-14T10:03:24;100194.78;;;28.00;8.73
54122;BME280;40029;58.708;50.190;2023-06-14T10:05:58;100179.06;;;28.05;9.24
54122;BME280;40029;58.708;50.190;2023-06-14T10:08:57;100182.66;;;28.30;9.24
54122;BME280;40029;58.708;50.190;2023-06-14T10:11:28;100207.81;;;28.37;9.09
54122;BME280;40029;58.708;50.190;2023-06-14T10:14:00;100221.81;;;28.23;9.25
54122;BME280;40029;58.708;50.190;2023-06-14T10:19:46;100211.28;;;28.22;7.88
54122;BME280;40029;58.708;50.190;2023-06-14T10:22:47;100177.72;;;28.09;8.45
54122;BME280;40029;58.708;50.190;2023-06-14T10:25:30;100201.34;;;28.48;8.31
54122;BME280;40029;58.708;50.190;2023-06-14T10:28:20;100137.59;;;28.18;8.81
54122;BME280;40029;58.708;50.190;2023-06-14T10:33:55;100162.84;;;28.15;8.18
54122;BME280;40029;58.708;50.190;2023-06-14T10:36:31;100171.47;;;28.35;8.43
54122;BME280;40029;58.708;50.190;2023-06-14T10:39:12;100198.22;;;28.85;8.74
54122;BME280;40029;58.708;50.190;2023-06-14T10:42:05;100154.97;;;28.72;8.32
54122;BME280;40029;58.708;50.190;2023-06-14T10:44:44;100184.97;;;28.92;8.14
54122;BME280;40029;58.708;50.190;2023-06-14T10:47:28;100189.28;;;28.52;8.13
54122;BME280;40029;58.708;50.190;2023-06-14T10:50:05;100151.53;;;28.37;7.85
54122;BME280;40029;58.708;50.190;2023-06-14T10:52:41;100172.56;;;28.83;7.51
54122;BME280;40029;58.708;50.190;2023-06-14T10:55:16;100173.41;;;28.83;7.64
54122;BME280;40029;58.708;50.190;2023-06-14T10:57:54;100128.81;;;28.82;7.70
54122;BME280;40029;58.708;50.190;2023-06-14T11:00:31;100133.72;;;29.03;8.24
54122;BME280;40029;58.708;50.190;2023-06-14T11:03:43;100165.41;;;29.16;7.08
54122;BME280;40029;58.708;50.190;2023-06-14T11:06:16;100127.16;;;28.81;7.17
54122;BME280;40029;58.708;50.190;2023-06-14T11:09:04;100162.84;;;29.39;7.30
54122;BME280;40029;58.708;50.190;2023-06-14T11:11:42;100119.56;;;29.42;7.06
54122;BME280;40029;58.708;50.190;2023-06-14T11:14:32;100118.19;;;29.62;6.82
54122;BME280;40029;58.708;50.190;2023-06-14T11:17:04;100140.00;;;29.68;6.58
54122;BME280;40029;58.708;50.190;2023-06-14T11:19:35;100152.78;;;30.05;6.31
54122;BME280;40029;58.708;50.190;2023-06-14T11:22:07;100128.88;;;29.79;6.15
54122;BME280;40029;58.708;50.190;2023-06-14T11:24:38;100147.91;;;30.08;6.71
54122;BME280;40029;58.708;50.190;2023-06-14T11:27:09;100115.13;;;30.21;6.44
54122;BME280;40029;58.708;50.190;2023-06-14T11:29:58;100133.28;;;31.11;6.56
54122;BME280;40029;58.708;50.190;2023-06-14T11:32:31;100111.16;;;31.83;5.95
54122;BME280;40029;58.708;50.190;2023-06-14T11:35:24;100127.41;;;32.83;4.97
54122;BME280;40029;58.708;50.190;2023-06-14T11:37:56;100106.25;;;33.37;3.80
54122;BME280;40029;58.708;50.190;2023-06-14T11:40:31;100116.63;;;34.09;3.55
54122;BME280;40029;58.708;50.190;2023-06-14T11:43:02;100098.25;;;34.52;2.58
54122;BME280;40029;58.708;50.190;2023-06-14T11:45:52;100095.91;;;35.42;1.64
54122;BME280;40029;58.708;50.190;2023-06-14T11:48:35;100136.84;;;36.50;1.43
54122;BME280;40029;58.708;50.190;2023-06-14T11:51:07;100124.78;;;36.71;2.02
54122;BME280;40029;58.708;50.190;2023-06-14T11:53:56;100119.19;;;36.66;1.02
54122;BME280;40029;58.708;50.190;2023-06-14T11:56:33;100111.59;;;36.75;1.15
54122;BME280;40029;58.708;50.190;2023-06-14T11:59:05;100093.00;;;35.50;2.10
54122;BME280;40029;58.708;50.190;2023-06-14T12:01:55;100126.38;;;34.71;3.16
54122;BME280;40029;58.708;50.190;2023-06-14T12:04:48;100122.13;;;33.46;3.35
54122;BME280;40029;58.708;50.190;2023-06-14T12:07:21;100119.66;;;32.52;3.91
54122;BME280;40029;58.708;50.190;2023-06-14T12:12:25;100072.06;;;31.87;4.51
54122;BME280;40029;58.708;50.190;2023-06-14T12:14:56;100110.00;;;33.07;4.49
54122;BME280;40029;58.708;50.190;2023-06-14T12:17:34;100031.31;;;33.45;4.19
54122;BME280;40029;58.708;50.190;2023-06-14T12:20:29;100069.94;;;34.62;2.81
54122;BME280;40029;58.708;50.190;2023-06-14T12:23:03;100063.72;;;34.88;3.13
54122;BME280;40029;58.708;50.190;2023-06-14T12:25:36;100088.22;;;35.52;2.18
54122;BME280;40029;58.708;50.190;2023-06-14T12:28:08;100093.84;;;35.44;2.43
54122;BME280;40029;58.708;50.190;2023-06-14T12:30:40;100114.19;;;35.80;2.26
54122;BME280;40029;58.708;50.190;2023-06-14T12:33:11;100098.44;;;36.09;1.81
54122;BME280;40029;58.708;50.190;2023-06-14T12:35:42;100093.75;;;35.77;1.82
54122;BME280;40029;58.708;50.190;2023-06-14T12:38:33;100094.44;;;35.60;2.04
54122;BME280;40029;58.708;50.190;2023-06-14T12:41:23;100070.00;;;35.73;2.29
54122;BME280;40029;58.708;50.190;2023-06-14T12:43:55;100090.94;;;35.52;2.80
54122;BME280;40029;58.708;50.190;2023-06-14T12:46:28;100049.94;;;35.16;2.57
54122;BME280;40029;58.708;50.190;2023-06-14T12:49:00;100062.38;;;35.57;2.31
54122;BME280;40029;58.708;50.190;2023-06-14T12:51:32;100088.06;;;35.92;1.99
54122;BME280;40029;58.708;50.190;2023-06-14T12:54:22;100037.13;;;36.01;1.49
54122;BME280;40029;58.708;50.190;2023-06-14T12:56:56;100075.00;;;36.21;2.08
54122;BME280;40029;58.708;50.190;2023-06-14T12:59:27;100086.59;;;35.96;2.54
54122;BME280;40029;58.708;50.190;2023-06-14T13:02:14;100030.53;;;35.84;1.08
54122;BME280;40029;58.708;50.190;2023-06-14T13:04:46;100045.50;;;35.93;2.17
54122;BME280;40029;58.708;50.190;2023-06-14T13:07:17;100039.91;;;35.81;1.76
54122;BME280;40029;58.708;50.190;2023-06-14T13:09:48;100033.66;;;35.80;2.22
54122;BME280;40029;58.708;50.190;2023-06-14T13:12:37;100042.06;;;36.11;1.15
54122;BME280;40029;58.708;50.190;2023-06-14T13:15:09;100058.72;;;36.21;1.51
54122;BME280;40029;58.708;50.190;2023-06-14T13:17:58;100048.59;;;36.35;1.50
54122;BME280;40029;58.708;50.190;2023-06-14T13:20:30;100071.13;;;36.03;1.70
54122;BME280;40029;58.708;50.190;2023-06-14T13:23:01;100032.78;;;36.00;1.98
54122;BME280;40029;58.708;50.190;2023-06-14T13:25:35;100067.63;;;35.96;2.44
54122;BME280;40029;58.708;50.190;2023-06-14T13:28:06;100024.78;;;35.67;2.31
54122;BME280;40029;58.708;50.190;2023-06-14T13:30:38;100060.13;;;35.98;1.80
54122;BME280;40029;58.708;50.190;2023-06-14T13:33:09;100049.63;;;36.02;1.95